Time;durP1;ratioP1;P1;durP2;ratioP2;P2;SDS_P1;SDS_P2;PMS_P1;PMS_P2;Temp;Humidity;BMP_temperature;BMP_pressure;BME280_temperature;BME280_humidity;BME280_pressure;Samples;Min_cycle;Max_cycle;Signal;HPM_P1;HPM_P2
2021/07/01 00:00:05;;;;;;;32.03;15.00;;;;;;;;;;5063678;28;20094;-89
2021/07/01 00:02:30;;;;;;;25.98;13.40;;;;;;;;;;5075695;28;20032;-90
2021/07/01 00:04:55;;;;;;;36.55;15.27;;;;;;;;;;5074401;28;20399;-89
2021/07/01 00:07:20;;;;;;;25.75;14.77;;;;;;;;;;5074424;28;20020;-89
2021/07/01 00:09:45;;;;;;;28.00;12.57;;;;;;;;;;5075586;28;20051;-89
2021/07/01 00:12:10;;;;;;;28.60;14.13;;;;;;;;;;5074452;28;20038;-90
2021/07/01 00:14:36;;;;;;;29.27;13.80;;;;;;;;;;5074690;28;20031;-89
2021/07/01 00:17:01;;;;;;;22.85;13.02;;;;;;;;;;5059754;28;20021;-89
2021/07/01 00:19:26;;;;;;;28.25;13.65;;;;;;;;;;5064107;28;20495;-90
2021/07/01 00:21:52;;;;;;;29.73;14.98;;;;;;;;;;5066358;28;20082;-89
2021/07/01 00:24:17;;;;;;;28.67;14.05;;;;;;;;;;5061108;28;20024;-90
2021/07/01 00:26:43;;;;;;;28.17;12.98;;;;;;;;;;5073770;28;20021;-89
2021/07/01 00:29:08;;;;;;;26.25;12.85;;;;;;;;;;5054684;28;20419;-89
2021/07/01 00:31:33;;;;;;;21.98;11.10;;;;;;;;;;5058341;28;20017;-89
2021/07/01 00:33:59;;;;;;;28.65;12.60;;;;;;;;;;5073212;28;20037;-89
2021/07/01 00:36:24;;;;;;;27.25;11.77;;;;;;;;;;5073804;28;20017;-89
2021/07/01 00:38:50;;;;;;;24.95;11.85;;;;;;;;;;5071757;28;20017;-89
2021/07/01 00:41:16;;;;;;;21.52;10.15;;;;;;;;;;5061470;28;20671;-89
2021/07/01 00:43:41;;;;;;;23.10;10.32;;;;;;;;;;5072248;28;20028;-89
2021/07/01 00:46:08;;;;;;;21.52;8.95;;;;;;;;;;5073179;28;20468;-89
2021/07/01 00:48:34;;;;;;;22.35;10.57;;;;;;;;;;5075113;28;20090;-90
2021/07/01 00:50:59;;;;;;;17.45;8.65;;;;;;;;;;5073405;28;20472;-89
2021/07/01 00:53:24;;;;;;;23.08;8.52;;;;;;;;;;5073291;28;20417;-89
2021/07/01 00:55:49;;;;;;;13.35;7.40;;;;;;;;;;5057940;28;20060;-90
2021/07/01 00:58:15;;;;;;;15.32;7.85;;;;;;;;;;5071042;28;20048;-89
2021/07/01 01:00:49;;;;;;;16.20;9.30;;;;;;;;;;5073390;28;20021;-89
2021/07/01 01:03:14;;;;;;;18.65;7.57;;;;;;;;;;5073539;28;20085;-89
2021/07/01 01:05:39;;;;;;;22.10;8.85;;;;;;;;;;5074621;28;20013;-90
2021/07/01 01:08:05;;;;;;;22.63;8.75;;;;;;;;;;5059153;28;20476;-90
2021/07/01 01:10:30;;;;;;;22.88;8.85;;;;;;;;;;5073046;28;20016;-90
2021/07/01 01:12:55;;;;;;;21.05;8.25;;;;;;;;;;5074483;28;20014;-90
2021/07/01 01:15:21;;;;;;;21.35;9.57;;;;;;;;;;5066370;28;20028;-90
2021/07/01 01:17:46;;;;;;;16.45;9.07;;;;;;;;;;5061401;28;20225;-89
2021/07/01 01:20:12;;;;;;;25.58;9.75;;;;;;;;;;5067831;28;20016;-89
2021/07/01 01:22:38;;;;;;;19.55;9.65;;;;;;;;;;5064443;28;20025;-90
2021/07/01 01:25:04;;;;;;;22.48;9.63;;;;;;;;;;5051651;28;20025;-90
2021/07/01 01:27:29;;;;;;;18.77;9.48;;;;;;;;;;5065671;28;20476;-90
2021/07/01 01:29:54;;;;;;;22.13;9.48;;;;;;;;;;5070181;28;20067;-90
2021/07/01 01:32:19;;;;;;;23.77;10.63;;;;;;;;;;5051681;28;20071;-90
2021/07/01 01:34:44;;;;;;;22.70;11.02;;;;;;;;;;5065086;28;20023;-90
2021/07/01 01:37:10;;;;;;;30.60;10.13;;;;;;;;;;5071609;28;20028;-89
2021/07/01 01:39:35;;;;;;;31.65;10.68;;;;;;;;;;5070042;28;20066;-89
2021/07/01 01:42:00;;;;;;;29.52;10.82;;;;;;;;;;5063002;28;20537;-89
2021/07/01 01:44:26;;;;;;;30.67;11.45;;;;;;;;;;5057718;28;20028;-90
2021/07/01 01:46:51;;;;;;;23.95;11.95;;;;;;;;;;5063225;28;20024;-89
2021/07/01 01:49:17;;;;;;;29.40;11.65;;;;;;;;;;5074233;28;20027;-89
2021/07/01 01:51:43;;;;;;;36.75;12.25;;;;;;;;;;5061691;28;20379;-90
2021/07/01 01:54:08;;;;;;;31.48;12.20;;;;;;;;;;5072382;28;20070;-90
2021/07/01 01:56:37;;;;;;;21.70;11.00;;;;;;;;;;5054838;28;20063;-89
2021/07/01 01:59:07;;;;;;;24.80;11.18;;;;;;;;;;5062811;28;20497;-89
2021/07/01 02:01:32;;;;;;;29.60;11.15;;;;;;;;;;5058392;28;20017;-89
2021/07/01 02:03:58;;;;;;;24.25;11.10;;;;;;;;;;5072567;28;20027;-89
2021/07/01 02:06:23;;;;;;;30.25;13.05;;;;;;;;;;5071088;28;20020;-90
2021/07/01 02:08:48;;;;;;;32.92;11.63;;;;;;;;;;5052065;28;20009;-89
2021/07/01 02:11:13;;;;;;;37.20;10.90;;;;;;;;;;5064235;28;20019;-90
2021/07/01 02:13:38;;;;;;;32.58;10.95;;;;;;;;;;5072261;28;20020;-89
2021/07/01 02:16:04;;;;;;;26.05;11.05;;;;;;;;;;5072165;28;20024;-90
2021/07/01 02:18:29;;;;;;;24.65;10.57;;;;;;;;;;5068061;28;20025;-90
2021/07/01 02:20:54;;;;;;;25.70;9.82;;;;;;;;;;5072178;28;20468;-90
2021/07/01 02:23:19;;;;;;;29.42;10.77;;;;;;;;;;5072376;28;20050;-90
2021/07/01 02:25:45;;;;;;;26.75;10.35;;;;;;;;;;5066725;28;20020;-90
2021/07/01 02:28:10;;;;;;;26.65;10.65;;;;;;;;;;5062202;28;20456;-90
2021/07/01 02:30:35;;;;;;;31.67;10.68;;;;;;;;;;5069281;28;20013;-89
2021/07/01 02:33:00;;;;;;;23.33;10.95;;;;;;;;;;5064974;28;20020;-89
2021/07/01 02:35:25;;;;;;;27.13;10.15;;;;;;;;;;5057619;28;20032;-89
2021/07/01 02:37:51;;;;;;;25.60;9.75;;;;;;;;;;5067023;28;20464;-90
2021/07/01 02:40:16;;;;;;;27.00;10.90;;;;;;;;;;5063518;28;20040;-89
2021/07/01 02:42:41;;;;;;;31.33;10.25;;;;;;;;;;5071527;28;20095;-90
2021/07/01 02:45:07;;;;;;;28.38;11.30;;;;;;;;;;5071783;28;20040;-90
2021/07/01 02:47:33;;;;;;;25.55;11.40;;;;;;;;;;5071961;28;20012;-90
2021/07/01 02:49:58;;;;;;;36.90;11.30;;;;;;;;;;5065273;28;20399;-89
2021/07/01 02:52:23;;;;;;;26.65;10.77;;;;;;;;;;5054336;28;20079;-89
2021/07/01 02:54:48;;;;;;;28.60;10.32;;;;;;;;;;5065729;28;20017;-89
2021/07/01 02:57:14;;;;;;;28.27;11.32;;;;;;;;;;5063141;28;20074;-89
2021/07/01 02:59:39;;;;;;;31.23;11.32;;;;;;;;;;5057888;28;20016;-90
2021/07/01 03:02:04;;;;;;;29.23;11.07;;;;;;;;;;5071800;28;20070;-89
2021/07/01 03:04:29;;;;;;;34.63;12.05;;;;;;;;;;5057765;28;20017;-89
2021/07/01 03:06:54;;;;;;;29.33;11.50;;;;;;;;;;5071721;28;20013;-89
2021/07/01 03:09:20;;;;;;;29.95;12.02;;;;;;;;;;5071499;28;20056;-89
2021/07/01 03:11:45;;;;;;;34.65;12.05;;;;;;;;;;5071602;28;20042;-89
2021/07/01 03:14:10;;;;;;;36.30;11.85;;;;;;;;;;5061004;28;20020;-90
2021/07/01 03:16:35;;;;;;;34.00;12.85;;;;;;;;;;5065335;28;20017;-89
2021/07/01 03:19:01;;;;;;;36.45;12.18;;;;;;;;;;5060553;28;20476;-89
2021/07/01 03:21:26;;;;;;;37.40;13.23;;;;;;;;;;5057342;28;20086;-90
2021/07/01 03:23:51;;;;;;;40.17;12.40;;;;;;;;;;5071642;28;20043;-90
2021/07/01 03:26:17;;;;;;;31.58;12.55;;;;;;;;;;5071372;28;20434;-89
2021/07/01 03:28:42;;;;;;;29.13;12.85;;;;;;;;;;5058624;28;20020;-89
2021/07/01 03:31:08;;;;;;;29.52;13.40;;;;;;;;;;5071364;28;20017;-89
2021/07/01 03:33:33;;;;;;;34.80;11.30;;;;;;;;;;5071240;28;20021;-89
2021/07/01 03:35:59;;;;;;;34.13;13.52;;;;;;;;;;5058339;28;20028;-89
2021/07/01 03:38:24;;;;;;;34.60;13.65;;;;;;;;;;5060585;28;20027;-90
2021/07/01 03:40:50;;;;;;;30.17;13.15;;;;;;;;;;5067626;28;20107;-90
2021/07/01 03:43:15;;;;;;;40.33;13.60;;;;;;;;;;5063003;28;20020;-89
2021/07/01 03:45:40;;;;;;;29.90;13.55;;;;;;;;;;5065138;28;20383;-89
2021/07/01 03:48:05;;;;;;;39.83;13.38;;;;;;;;;;5052283;28;20021;-90
2021/07/01 03:50:31;;;;;;;31.38;13.55;;;;;;;;;;5064749;28;20017;-90
2021/07/01 03:52:56;;;;;;;33.63;12.98;;;;;;;;;;5068840;28;20110;-89
2021/07/01 03:55:21;;;;;;;39.75;15.63;;;;;;;;;;5055029;28;20039;-89
2021/07/01 03:57:46;;;;;;;35.30;15.57;;;;;;;;;;5070709;28;20423;-89
2021/07/01 04:00:12;;;;;;;30.48;14.50;;;;;;;;;;5074671;28;20529;-89
2021/07/01 04:02:37;;;;;;;31.77;13.98;;;;;;;;;;5074701;28;20411;-89
2021/07/01 04:05:03;;;;;;;33.55;13.20;;;;;;;;;;5068483;28;20028;-89
2021/07/01 04:07:28;;;;;;;33.22;13.98;;;;;;;;;;5066253;28;20048;-88
2021/07/01 04:09:53;;;;;;;37.85;13.52;;;;;;;;;;5060048;28;20468;-89
2021/07/01 04:12:19;;;;;;;35.80;12.52;;;;;;;;;;5060467;28;20380;-89
2021/07/01 04:14:44;;;;;;;31.48;13.40;;;;;;;;;;5070007;28;20020;-89
2021/07/01 04:17:10;;;;;;;35.30;13.93;;;;;;;;;;5074448;28;20070;-89
2021/07/01 04:19:36;;;;;;;34.47;13.02;;;;;;;;;;5074237;28;20051;-89
2021/07/01 04:22:01;;;;;;;34.88;13.35;;;;;;;;;;5073857;28;20395;-88
2021/07/01 04:24:26;;;;;;;36.00;13.20;;;;;;;;;;5074256;28;20028;-89
2021/07/01 04:26:51;;;;;;;32.60;12.63;;;;;;;;;;5073988;28;20012;-89
2021/07/01 04:29:16;;;;;;;35.83;12.55;;;;;;;;;;5074117;28;20024;-89
2021/07/01 04:31:42;;;;;;;29.10;11.48;;;;;;;;;;5073849;28;20036;-89
2021/07/01 04:34:07;;;;;;;27.30;11.95;;;;;;;;;;5071416;28;20039;-90
2021/07/01 04:36:33;;;;;;;31.55;11.23;;;;;;;;;;5073737;28;20017;-90
2021/07/01 04:38:58;;;;;;;38.67;12.98;;;;;;;;;;5073973;28;20012;-89
2021/07/01 04:41:24;;;;;;;38.97;12.38;;;;;;;;;;5067226;28;20025;-89
2021/07/01 04:43:49;;;;;;;35.13;11.30;;;;;;;;;;5067229;28;20023;-89
2021/07/01 04:46:14;;;;;;;28.77;11.65;;;;;;;;;;5073752;28;20022;-89
2021/07/01 04:48:43;;;;;;;36.42;12.55;;;;;;;;;;5073819;28;20025;-89
2021/07/01 04:51:08;;;;;;;40.95;11.68;;;;;;;;;;5073319;28;20035;-89
2021/07/01 04:53:34;;;;;;;32.80;11.40;;;;;;;;;;5064222;28;20024;-89
2021/07/01 04:55:59;;;;;;;33.47;10.85;;;;;;;;;;5069029;28;20021;-89
2021/07/01 04:58:24;;;;;;;31.80;11.48;;;;;;;;;;5073747;28;20102;-88
2021/07/01 05:00:49;;;;;;;34.63;11.57;;;;;;;;;;5073281;28;20023;-89
2021/07/01 05:03:15;;;;;;;31.73;12.10;;;;;;;;;;5061745;28;20031;-88
2021/07/01 05:05:40;;;;;;;24.25;10.27;;;;;;;;;;5073136;28;20021;-89
2021/07/01 05:08:05;;;;;;;29.23;11.15;;;;;;;;;;5073480;28;20024;-89
2021/07/01 05:10:30;;;;;;;31.58;11.27;;;;;;;;;;5064273;28;20021;-89
2021/07/01 05:12:56;;;;;;;35.72;11.80;;;;;;;;;;5069310;28;20017;-89
2021/07/01 05:15:22;;;;;;;30.40;11.20;;;;;;;;;;5073137;28;20054;-89
2021/07/01 05:17:47;;;;;;;35.50;12.15;;;;;;;;;;5073099;28;20067;-89
2021/07/01 05:20:13;;;;;;;35.72;10.82;;;;;;;;;;5072966;28;20046;-89
2021/07/01 05:22:38;;;;;;;30.20;11.05;;;;;;;;;;5072971;28;20365;-89
2021/07/01 05:25:03;;;;;;;35.72;12.30;;;;;;;;;;5072952;28;20086;-89
2021/07/01 05:27:29;;;;;;;27.45;10.60;;;;;;;;;;5072933;28;20017;-90
2021/07/01 05:29:54;;;;;;;29.02;10.98;;;;;;;;;;5072843;28;20502;-89
2021/07/01 05:32:19;;;;;;;30.05;10.98;;;;;;;;;;5071381;28;20486;-90
2021/07/01 05:34:44;;;;;;;28.13;10.32;;;;;;;;;;5072215;28;20031;-89
2021/07/01 05:37:10;;;;;;;26.52;10.20;;;;;;;;;;5073547;28;20429;-89
2021/07/01 05:39:35;;;;;;;28.92;10.85;;;;;;;;;;5072784;28;20021;-89
2021/07/01 05:42:00;;;;;;;28.52;10.43;;;;;;;;;;5072528;28;20479;-88
2021/07/01 05:44:26;;;;;;;30.55;10.88;;;;;;;;;;5062515;28;20029;-89
2021/07/01 05:46:51;;;;;;;28.00;10.73;;;;;;;;;;5059001;28;20024;-89
2021/07/01 05:49:16;;;;;;;26.27;10.07;;;;;;;;;;5066285;28;20017;-89
2021/07/01 05:51:43;;;;;;;30.63;11.15;;;;;;;;;;5093411;28;20085;-89
2021/07/01 05:54:26;;;;;;;34.90;10.93;;;;;;;;;;5072258;28;20566;-90
2021/07/01 05:56:51;;;;;;;33.58;10.35;;;;;;;;;;5059971;28;20031;-90
2021/07/01 05:59:17;;;;;;;35.15;10.85;;;;;;;;;;5053144;28;20017;-89
2021/07/01 06:01:42;;;;;;;28.42;9.90;;;;;;;;;;5060829;28;20019;-89
2021/07/01 06:04:07;;;;;;;31.77;9.98;;;;;;;;;;5052269;28;20027;-89
2021/07/01 06:06:33;;;;;;;31.75;10.77;;;;;;;;;;5056475;28;20055;-89
2021/07/01 06:08:59;;;;;;;32.50;10.40;;;;;;;;;;5055335;28;20043;-89
2021/07/01 06:11:24;;;;;;;27.95;10.15;;;;;;;;;;5066572;28;20009;-90
2021/07/01 06:13:49;;;;;;;30.67;10.95;;;;;;;;;;5060905;28;20013;-89
2021/07/01 06:16:15;;;;;;;32.70;10.35;;;;;;;;;;5072130;28;20423;-88
2021/07/01 06:18:42;;;;;;;34.08;10.25;;;;;;;;;;5067520;28;20527;-90
2021/07/01 06:21:07;;;;;;;33.47;10.60;;;;;;;;;;5051925;28;20033;-90
2021/07/01 06:23:32;;;;;;;31.55;10.40;;;;;;;;;;5066258;28;20345;-90
2021/07/01 06:25:59;;;;;;;31.23;10.60;;;;;;;;;;5059655;28;20035;-90
2021/07/01 06:28:25;;;;;;;31.88;10.90;;;;;;;;;;5068543;28;20515;-90
2021/07/01 06:30:51;;;;;;;28.10;10.23;;;;;;;;;;5062364;28;20028;-89
2021/07/01 06:33:18;;;;;;;31.77;10.18;;;;;;;;;;5057562;28;20025;-90
2021/07/01 06:35:47;;;;;;;27.58;9.52;;;;;;;;;;5069890;28;20387;-89
2021/07/01 06:38:15;;;;;;;26.67;9.00;;;;;;;;;;5071808;28;20021;-89
2021/07/01 06:40:40;;;;;;;27.70;9.82;;;;;;;;;;5071374;28;20032;-89
2021/07/01 06:43:05;;;;;;;27.20;9.55;;;;;;;;;;5073126;28;20302;-89
2021/07/01 06:45:31;;;;;;;24.98;9.32;;;;;;;;;;5064968;28;20033;-89
2021/07/01 06:47:57;;;;;;;30.85;9.10;;;;;;;;;;5064081;28;20603;-89
2021/07/01 06:50:23;;;;;;;31.30;9.43;;;;;;;;;;5055418;28;20476;-89
2021/07/01 06:52:51;;;;;;;26.42;8.50;;;;;;;;;;5055850;28;20025;-89
2021/07/01 06:55:16;;;;;;;23.75;8.93;;;;;;;;;;5065673;28;20721;-90
2021/07/01 06:57:42;;;;;;;28.77;8.15;;;;;;;;;;5065395;28;20021;-89
2021/07/01 07:00:11;;;;;;;39.72;9.05;;;;;;;;;;5058764;28;20042;-86
2021/07/01 07:02:37;;;;;;;23.00;8.20;;;;;;;;;;5056976;28;20040;-86
2021/07/01 07:05:03;;;;;;;27.58;8.40;;;;;;;;;;5071413;28;20028;-86
2021/07/01 07:07:29;;;;;;;25.83;8.55;;;;;;;;;;5064485;28;20239;-86
2021/07/01 07:09:54;;;;;;;26.95;8.32;;;;;;;;;;5057841;28;20072;-91
2021/07/01 07:12:19;;;;;;;20.48;7.38;;;;;;;;;;5047407;28;20100;-92
2021/07/01 07:14:44;;;;;;;23.88;7.43;;;;;;;;;;5046106;28;20021;-87
2021/07/01 07:17:10;;;;;;;21.65;7.03;;;;;;;;;;5053546;28;20388;-88
2021/07/01 07:19:37;;;;;;;22.42;6.53;;;;;;;;;;5052544;28;20029;-88
2021/07/01 07:22:03;;;;;;;25.30;7.50;;;;;;;;;;5071717;28;20016;-88
2021/07/01 07:24:29;;;;;;;23.17;5.95;;;;;;;;;;5071826;28;20035;-88
2021/07/01 07:26:55;;;;;;;25.13;7.75;;;;;;;;;;5065762;28;20428;-88
2021/07/01 07:29:22;;;;;;;22.55;7.18;;;;;;;;;;5066842;28;20023;-88
2021/07/01 07:31:48;;;;;;;20.75;6.30;;;;;;;;;;5060237;28;20498;-87
2021/07/01 07:34:13;;;;;;;16.80;6.43;;;;;;;;;;5063360;28;20099;-88
2021/07/01 07:36:38;;;;;;;21.63;6.82;;;;;;;;;;5075489;28;20112;-88
2021/07/01 07:39:05;;;;;;;24.13;6.18;;;;;;;;;;5062892;28;20479;-88
2021/07/01 07:41:30;;;;;;;22.48;6.63;;;;;;;;;;5075507;28;20559;-88
2021/07/01 07:43:55;;;;;;;20.10;6.80;;;;;;;;;;5066570;28;20107;-89
2021/07/01 07:46:22;;;;;;;22.10;6.40;;;;;;;;;;5055664;28;20025;-88
2021/07/01 07:48:48;;;;;;;22.58;6.53;;;;;;;;;;5056189;28;20013;-89
2021/07/01 07:51:18;;;;;;;19.52;5.35;;;;;;;;;;5057732;28;20028;-88
2021/07/01 07:53:46;;;;;;;26.38;6.32;;;;;;;;;;5059340;28;20021;-89
2021/07/01 07:56:12;;;;;;;23.50;6.03;;;;;;;;;;5055536;28;20025;-87
2021/07/01 07:58:41;;;;;;;18.17;6.38;;;;;;;;;;5058900;28;20162;-89
2021/07/01 08:01:08;;;;;;;18.48;5.45;;;;;;;;;;5060842;28;20396;-88
2021/07/01 08:03:33;;;;;;;19.98;6.03;;;;;;;;;;5055038;28;20441;-88
2021/07/01 08:06:02;;;;;;;19.38;5.55;;;;;;;;;;5056109;28;20028;-89
2021/07/01 08:08:29;;;;;;;18.42;5.70;;;;;;;;;;5067686;28;20040;-87
2021/07/01 08:10:56;;;;;;;21.77;5.55;;;;;;;;;;5061672;28;20024;-88
2021/07/01 08:13:22;;;;;;;17.17;5.43;;;;;;;;;;5055093;28;20045;-89
2021/07/01 08:15:47;;;;;;;20.73;6.03;;;;;;;;;;5058444;28;20052;-88
2021/07/01 08:18:19;;;;;;;22.20;6.28;;;;;;;;;;5057051;28;20023;-87
2021/07/01 08:20:45;;;;;;;21.20;5.38;;;;;;;;;;5058273;28;20024;-88
2021/07/01 08:23:10;;;;;;;16.08;5.60;;;;;;;;;;5060223;28;20033;-88
2021/07/01 08:25:36;;;;;;;16.80;5.90;;;;;;;;;;5056042;28;20020;-86
2021/07/01 08:28:01;;;;;;;32.08;6.45;;;;;;;;;;5060909;28;20013;-87
2021/07/01 08:30:27;;;;;;;24.00;6.25;;;;;;;;;;5055108;28;20021;-88
2021/07/01 08:32:54;;;;;;;17.52;5.35;;;;;;;;;;5053710;28;20020;-87
2021/07/01 08:35:21;;;;;;;15.88;5.22;;;;;;;;;;5058775;28;20031;-87
2021/07/01 08:37:48;;;;;;;15.88;5.32;;;;;;;;;;5049794;28;20055;-89
2021/07/01 08:40:14;;;;;;;20.67;5.53;;;;;;;;;;5054341;28;20025;-89
2021/07/01 08:42:40;;;;;;;18.20;5.85;;;;;;;;;;5056053;28;20024;-88
2021/07/01 08:45:06;;;;;;;20.30;5.50;;;;;;;;;;5053971;28;20024;-87
2021/07/01 08:47:33;;;;;;;19.73;5.95;;;;;;;;;;5056601;28;20024;-87
2021/07/01 08:49:59;;;;;;;18.08;5.55;;;;;;;;;;5053476;28;20028;-88
2021/07/01 08:52:29;;;;;;;23.77;6.82;;;;;;;;;;5057651;28;20066;-86
2021/07/01 08:54:57;;;;;;;17.02;6.05;;;;;;;;;;5047228;28;20029;-87
2021/07/01 08:57:26;;;;;;;11.77;5.72;;;;;;;;;;5062210;28;20420;-87
2021/07/01 08:59:56;;;;;;;16.88;5.88;;;;;;;;;;5057947;28;20082;-87
2021/07/01 09:02:41;;;;;;;20.40;6.47;;;;;;;;;;5062080;28;20104;-90
2021/07/01 09:05:12;;;;;;;20.77;6.05;;;;;;;;;;5049086;28;20016;-89
2021/07/01 09:07:38;;;;;;;13.48;5.80;;;;;;;;;;5054936;28;20116;-88
2021/07/01 09:10:06;;;;;;;19.75;6.32;;;;;;;;;;5064705;28;20044;-89
2021/07/01 09:12:32;;;;;;;24.25;5.57;;;;;;;;;;5053598;28;20419;-90
2021/07/01 09:14:57;;;;;;;18.70;5.25;;;;;;;;;;5050494;28;20079;-94
2021/07/01 09:17:24;;;;;;;20.80;5.55;;;;;;;;;;5059742;28;20080;-95
2021/07/01 09:19:52;;;;;;;18.40;5.90;;;;;;;;;;5064164;28;20035;-91
2021/07/01 09:22:18;;;;;;;15.55;5.55;;;;;;;;;;5054933;28;20476;-92
2021/07/01 09:24:47;;;;;;;16.40;6.18;;;;;;;;;;5053037;28;20017;-92
2021/07/01 09:27:12;;;;;;;23.83;6.57;;;;;;;;;;5053355;28;20099;-87
2021/07/01 09:29:41;;;;;;;21.27;6.60;;;;;;;;;;5053509;28;20025;-87
2021/07/01 09:32:08;;;;;;;24.65;7.68;;;;;;;;;;5047240;28;20021;-88
2021/07/01 09:34:34;;;;;;;23.27;6.90;;;;;;;;;;5054219;28;20155;-88
2021/07/01 09:37:01;;;;;;;21.25;6.60;;;;;;;;;;5052071;28;20063;-88
2021/07/01 09:39:26;;;;;;;23.48;7.35;;;;;;;;;;5052554;28;20023;-89
2021/07/01 09:41:53;;;;;;;25.05;6.57;;;;;;;;;;5054161;28;20096;-89
2021/07/01 09:44:18;;;;;;;22.70;7.63;;;;;;;;;;5052424;28;20017;-89
2021/07/01 09:46:46;;;;;;;18.13;6.45;;;;;;;;;;5054614;28;20028;-89
2021/07/01 09:49:15;;;;;;;15.85;5.45;;;;;;;;;;5051149;28;20027;-88
2021/07/01 09:51:41;;;;;;;26.67;7.03;;;;;;;;;;5052991;28;20020;-89
2021/07/01 09:54:06;;;;;;;22.95;6.50;;;;;;;;;;5052037;28;20473;-89
2021/07/01 09:56:37;;;;;;;22.80;7.38;;;;;;;;;;5052527;28;20083;-89
2021/07/01 09:59:04;;;;;;;25.75;8.20;;;;;;;;;;5058771;28;20020;-88
2021/07/01 10:01:41;;;;;;;26.30;7.38;;;;;;;;;;5052099;28;20025;-87
2021/07/01 10:04:09;;;;;;;25.85;7.75;;;;;;;;;;5052568;28;20017;-88
2021/07/01 10:06:35;;;;;;;21.98;5.72;;;;;;;;;;5053954;28;20036;-90
2021/07/01 10:09:00;;;;;;;27.58;7.60;;;;;;;;;;5081192;28;20095;-87
2021/07/01 10:11:32;;;;;;;27.38;7.20;;;;;;;;;;5052345;28;20024;-88
2021/07/01 10:13:58;;;;;;;24.95;7.78;;;;;;;;;;5055865;28;20085;-88
2021/07/01 10:16:28;;;;;;;29.23;8.73;;;;;;;;;;5061023;28;20036;-89
2021/07/01 10:18:55;;;;;;;25.77;7.70;;;;;;;;;;5050597;28;20028;-90
2021/07/01 10:21:22;;;;;;;28.42;8.55;;;;;;;;;;5046364;28;20025;-87
2021/07/01 10:23:51;;;;;;;24.50;8.07;;;;;;;;;;5049602;28;20039;-88
2021/07/01 10:26:20;;;;;;;28.90;7.97;;;;;;;;;;5047368;28;20037;-87
2021/07/01 10:29:03;;;;;;;32.58;8.63;;;;;;;;;;5050181;28;20021;-87
2021/07/01 10:31:59;;;;;;;25.52;8.10;;;;;;;;;;5054064;28;20013;-90
2021/07/01 10:34:25;;;;;;;24.15;7.53;;;;;;;;;;5057960;28;20044;-88
2021/07/01 10:37:09;;;;;;;22.95;8.52;;;;;;;;;;5052569;28;20041;-88
2021/07/01 10:39:35;;;;;;;22.55;7.82;;;;;;;;;;5051078;28;20024;-90
2021/07/01 10:42:01;;;;;;;26.63;7.68;;;;;;;;;;5052235;28;20021;-88
2021/07/01 10:44:26;;;;;;;17.75;6.82;;;;;;;;;;5054605;28;20035;-89
2021/07/01 10:46:51;;;;;;;24.33;7.97;;;;;;;;;;5058805;28;20457;-89
2021/07/01 10:49:17;;;;;;;29.25;8.57;;;;;;;;;;5080160;28;20468;-89
2021/07/01 10:51:52;;;;;;;25.40;8.18;;;;;;;;;;5050219;28;20029;-90
2021/07/01 10:54:18;;;;;;;28.48;8.65;;;;;;;;;;5051491;28;20059;-89
2021/07/01 10:56:44;;;;;;;29.02;8.77;;;;;;;;;;5039895;28;20040;-89
2021/07/01 10:59:11;;;;;;;34.58;8.95;;;;;;;;;;5060680;28;20031;-89
2021/07/01 11:01:37;;;;;;;25.10;8.45;;;;;;;;;;5057300;28;20020;-89
2021/07/01 11:04:03;;;;;;;31.60;8.40;;;;;;;;;;5063762;28;20067;-89
2021/07/01 11:06:29;;;;;;;28.75;7.47;;;;;;;;;;5057149;28;20025;-90
2021/07/01 11:08:55;;;;;;;34.50;8.10;;;;;;;;;;5056220;28;20062;-90
2021/07/01 11:11:21;;;;;;;29.00;7.28;;;;;;;;;;5056180;28;20028;-89
2021/07/01 11:13:57;;;;;;;24.23;7.85;;;;;;;;;;5055942;28;20063;-89
2021/07/01 11:16:38;;;;;;;16.50;6.60;;;;;;;;;;5056085;28;20528;-90
2021/07/01 11:19:03;;;;;;;19.83;6.60;;;;;;;;;;5041872;28;20372;-89
2021/07/01 11:21:28;;;;;;;25.15;6.60;;;;;;;;;;5050743;28;20021;-89
2021/07/01 11:24:09;;;;;;;28.27;6.53;;;;;;;;;;5058362;28;20380;-90
2021/07/01 11:26:34;;;;;;;21.80;6.90;;;;;;;;;;5070523;28;20032;-88
2021/07/01 11:29:03;;;;;;;24.95;6.10;;;;;;;;;;5050022;28;20021;-87
2021/07/01 11:31:47;;;;;;;25.88;7.05;;;;;;;;;;5053739;28;20025;-87
2021/07/01 11:34:17;;;;;;;26.13;6.72;;;;;;;;;;5048084;28;20025;-89
2021/07/01 11:36:51;;;;;;;22.63;6.88;;;;;;;;;;5053378;28;20376;-88
2021/07/01 11:39:39;;;;;;;15.25;6.07;;;;;;;;;;5042646;28;20031;-87
2021/07/01 11:42:05;;;;;;;20.10;6.20;;;;;;;;;;5049032;28;20029;-87
2021/07/01 11:44:34;;;;;;;15.02;6.53;;;;;;;;;;5046757;28;20490;-86
2021/07/01 11:47:01;;;;;;;25.15;6.93;;;;;;;;;;5049910;28;20021;-86
2021/07/01 11:49:29;;;;;;;20.55;7.35;;;;;;;;;;5051817;28;20427;-86
2021/07/01 11:51:54;;;;;;;22.38;7.60;;;;;;;;;;5050183;28;20476;-87
2021/07/01 11:54:20;;;;;;;25.85;8.73;;;;;;;;;;5058978;28;20035;-87
2021/07/01 11:57:00;;;;;;;21.63;7.43;;;;;;;;;;5053499;28;20046;-87
2021/07/01 11:59:26;;;;;;;23.45;7.53;;;;;;;;;;5058114;28;20023;-87
2021/07/01 12:01:51;;;;;;;24.27;7.45;;;;;;;;;;5061852;28;20024;-87
2021/07/01 12:04:17;;;;;;;27.45;8.23;;;;;;;;;;5059119;28;20036;-87
2021/07/01 12:07:00;;;;;;;14.50;6.50;;;;;;;;;;5056635;28;20021;-87
2021/07/01 12:09:25;;;;;;;26.48;7.72;;;;;;;;;;5055874;28;20103;-87
2021/07/01 12:12:03;;;;;;;22.08;8.27;;;;;;;;;;5056540;28;20107;-87
2021/07/01 12:14:31;;;;;;;23.40;7.20;;;;;;;;;;5055281;28;20100;-88
2021/07/01 12:16:57;;;;;;;22.27;7.22;;;;;;;;;;5055870;28;20028;-88
2021/07/01 12:19:42;;;;;;;17.73;7.45;;;;;;;;;;5053305;28;20380;-86
2021/07/01 12:22:07;;;;;;;16.60;6.63;;;;;;;;;;5050668;28;20455;-87
2021/07/01 12:24:32;;;;;;;18.17;6.05;;;;;;;;;;5055026;28;20005;-89
2021/07/01 12:26:58;;;;;;;17.15;6.18;;;;;;;;;;5054174;28;20032;-88
2021/07/01 12:29:49;;;;;;;17.35;6.00;;;;;;;;;;5052231;28;20025;-88
2021/07/01 12:32:24;;;;;;;13.35;5.75;;;;;;;;;;5052593;28;20067;-87
2021/07/01 12:34:49;;;;;;;16.90;6.15;;;;;;;;;;5053533;28;20438;-89
2021/07/01 12:37:14;;;;;;;16.55;5.90;;;;;;;;;;5056968;28;20108;-87
2021/07/01 12:39:47;;;;;;;19.15;5.97;;;;;;;;;;5053640;28;20054;-87
2021/07/01 12:42:12;;;;;;;16.92;6.38;;;;;;;;;;5059417;28;20028;-89
2021/07/01 12:44:43;;;;;;;19.08;6.05;;;;;;;;;;5051714;28;20516;-88
2021/07/01 12:47:11;;;;;;;22.00;6.35;;;;;;;;;;5061062;28;20027;-88
2021/07/01 12:49:37;;;;;;;19.15;6.53;;;;;;;;;;5055644;28;20090;-89
2021/07/01 12:52:12;;;;;;;17.80;6.03;;;;;;;;;;5053625;28;20045;-88
2021/07/01 12:54:37;;;;;;;15.00;6.07;;;;;;;;;;5068061;28;20024;-88
2021/07/01 12:57:06;;;;;;;18.92;6.60;;;;;;;;;;5052862;28;20025;-88
2021/07/01 12:59:39;;;;;;;20.23;6.93;;;;;;;;;;5051750;28;20020;-87
2021/07/01 13:02:06;;;;;;;19.67;7.30;;;;;;;;;;5051241;28;20028;-88
2021/07/01 13:04:32;;;;;;;19.27;6.00;;;;;;;;;;5054878;28;20012;-89
2021/07/01 13:06:58;;;;;;;15.65;5.55;;;;;;;;;;5050359;28;20021;-88
2021/07/01 13:09:29;;;;;;;18.25;6.53;;;;;;;;;;5083756;28;20460;-87
2021/07/01 13:11:55;;;;;;;20.07;6.60;;;;;;;;;;5056263;28;20067;-87
2021/07/01 13:14:23;;;;;;;15.73;5.60;;;;;;;;;;5051072;28;20630;-87
2021/07/01 13:17:18;;;;;;;16.25;5.97;;;;;;;;;;5058650;28;20021;-86
2021/07/01 13:19:54;;;;;;;17.08;5.90;;;;;;;;;;5038852;28;20031;-87
2021/07/01 13:22:21;;;;;;;11.57;5.57;;;;;;;;;;5052585;28;20547;-87
2021/07/01 13:24:50;;;;;;;17.05;6.50;;;;;;;;;;5053233;28;20029;-88
2021/07/01 13:27:27;;;;;;;15.63;5.90;;;;;;;;;;5052006;28;20131;-88
2021/07/01 13:29:53;;;;;;;20.95;6.43;;;;;;;;;;5052379;28;20020;-89
2021/07/01 13:32:18;;;;;;;13.18;5.70;;;;;;;;;;5054971;28;20018;-88
2021/07/01 13:34:43;;;;;;;17.90;6.53;;;;;;;;;;5054743;28;20017;-88
2021/07/01 13:37:19;;;;;;;15.18;6.32;;;;;;;;;;5043253;28;20049;-88
2021/07/01 13:39:44;;;;;;;15.10;5.90;;;;;;;;;;5054708;28;20017;-89
2021/07/01 13:42:22;;;;;;;21.50;5.82;;;;;;;;;;5052400;28;20044;-88
2021/07/01 13:45:00;;;;;;;17.20;5.85;;;;;;;;;;5077365;28;20017;-87
2021/07/01 13:47:26;;;;;;;17.77;5.20;;;;;;;;;;5049594;28;20017;-90
2021/07/01 13:49:51;;;;;;;15.23;5.03;;;;;;;;;;5051954;28;20391;-88
2021/07/01 13:52:17;;;;;;;16.00;5.07;;;;;;;;;;5051778;28;20052;-87
2021/07/01 13:54:42;;;;;;;15.27;5.65;;;;;;;;;;5053081;28;20013;-88
2021/07/01 13:57:07;;;;;;;17.75;5.75;;;;;;;;;;5047215;28;20031;-90
2021/07/01 13:59:33;;;;;;;19.35;6.72;;;;;;;;;;5049736;28;20070;-89
2021/07/01 14:01:58;;;;;;;21.73;6.38;;;;;;;;;;5050471;28;20085;-88
2021/07/01 14:04:23;;;;;;;14.73;5.28;;;;;;;;;;5094818;28;20021;-89
2021/07/01 14:06:48;;;;;;;14.70;5.80;;;;;;;;;;5052002;28;20021;-89
2021/07/01 14:09:13;;;;;;;15.88;5.35;;;;;;;;;;5050663;28;20448;-88
2021/07/01 14:11:39;;;;;;;14.60;6.22;;;;;;;;;;5051952;28;20028;-88
2021/07/01 14:14:05;;;;;;;16.95;5.40;;;;;;;;;;5048239;28;20112;-88
2021/07/01 14:16:31;;;;;;;15.98;5.40;;;;;;;;;;5054092;28;20361;-88
2021/07/01 14:18:57;;;;;;;17.60;6.10;;;;;;;;;;5051354;28;20551;-88
2021/07/01 14:21:35;;;;;;;15.73;6.35;;;;;;;;;;5057590;28;20024;-88